Flight Track Log - Related Links

Times and Time Zones

All times are in EDT time to prevent confusion due to time zone crossing. See the SWA4879 flight status page for this flight to view local times or setup timezone preferences in your user account.

Time Position Orientation Groundspeed Altitude Reporting Facility
EDT Latitude Longitude Course Direction KTS MPH feet Rate Location/Type
Sat 10:28:46 PM 39.9000 -104.5167 323° Northwest 236 272 9,000  Level Denver TRACON
Sat 10:29:40 PM 39.9167 -104.4333 75° East 294 338 10,100 1,900 Climbing Denver TRACON
Sat 10:30:46 PM 40.0167 -104.4500 353° North 344 396 12,800 3,231 Climbing Denver TRACON
Sat 10:32:16 PM 40.1278 -104.5386 329° Northwest 314 361 18,500 3,440 Climbing Denver Center
Sat 10:33:00 PM 40.2722 -104.5762 327° Northwest  Level FlightAware Approximate
Sat 10:33:16 PM 40.2028 -104.6003 328° Northwest 319 367 21,400  Level Denver Center
Sat 10:34:00 PM 40.3476 -104.6642 323° Northwest  Level FlightAware Approximate
Sat 10:34:17 PM 40.2819 -104.6656 328° Northwest 337 388 24,000  Level Denver Center
Sat 10:35:18 PM 40.3608 -104.7358 326° Northwest 338 389 26,300 2,213 Climbing Denver Center
Sat 10:36:19 PM 40.4269 -104.8339 312° West 353 406 28,500 1,623 Climbing Denver Center
Sat 10:37:20 PM 40.4964 -104.9331 313° West 366 421 29,600 934 Climbing Denver Center
Sat 10:38:21 PM 40.5742 -105.0464 312° West 410 472 30,400 1,475 Climbing Denver Center
Sat 10:39:22 PM 40.6522 -105.1567 313° West 407 468 32,600 2,115 Climbing Denver Center
Sat 10:40:23 PM 40.7311 -105.2711 312° West 413 475 34,700 1,820 Climbing Denver Center
Sat 10:41:24 PM 40.8067 -105.3800 313° West 403 464 36,300 1,377 Climbing Denver Center
Sat 10:42:25 PM 40.8825 -105.4919 312° West 405 466 37,500 1,230 Climbing Denver Center
Sat 10:43:26 PM 40.9589 -105.6022 313° West 404 465 38,800 1,082 Climbing Denver Center
Sat 10:44:27 PM 41.0328 -105.7108 312° West 400 460 39,700 645 Climbing Denver Center
Sat 10:45:27 PM 41.1164 -105.8361 312° West 405 466 40,100 198 Climbing Denver Center
Sat 10:46:28 PM 41.1900 -105.9444 312° West 410 472 40,100  Level Denver Center
Sat 10:47:29 PM 41.2625 -106.0531 312° West 411 473 40,100  Level Denver Center
Sat 10:48:30 PM 41.3478 -106.1797 312° West 411 473 40,100  Level Denver Center
Sat 10:49:31 PM 41.4203 -106.2900 311° West 414 476 40,100  Level Denver Center
Sat 10:50:32 PM 41.4892 -106.3931 312° West 401 461 40,100  Level Denver Center
Sat 10:51:32 PM 41.5675 -106.5128 311° West 390 449 40,100  Level Denver Center
Sat 10:52:33 PM 41.6383 -106.6192 312° West 400 460 40,100  Level Denver Center
Sat 10:53:34 PM 41.7083 -106.7269 311° West 400 460 40,100  Level Denver Center
Sat 10:54:35 PM 41.7908 -106.8503 312° West 399 459 40,100  Level Denver Center
Sat 10:55:36 PM 41.8611 -106.9581 311° West 402 463 40,100  Level Denver Center
Sat 10:56:36 PM 41.9411 -107.0833 311° West 398 458 40,100  Level Denver Center
Sat 10:57:37 PM 42.0114 -107.1900 312° West 398 458 40,100  Level Denver Center
Sat 10:58:38 PM 42.0794 -107.2972 311° West 396 456 40,100  Level Denver Center
Sat 10:59:39 PM 42.1586 -107.4214 311° West 393 452 40,100  Level Denver Center
Sat 11:00:40 PM 42.2272 -107.5292 311° West 397 457 40,100  Level Denver Center
Sat 11:01:40 PM 42.2947 -107.6350 311° West 392 451 40,100  Level Denver Center
Sat 11:02:41 PM 42.3742 -107.7606 311° West 393 452 40,100  Level Denver Center
Sat 11:03:40 PM 42.4411 -107.8683 310° West 393 452 40,100  Level Salt Lake Center
Sat 11:04:41 PM 42.5078 -107.9742 311° West 387 445 40,100  Level Salt Lake Center
Sat 11:05:42 PM 42.5869 -108.1019 310° West 394 453 40,100  Level Salt Lake Center
Sat 11:06:43 PM 42.6544 -108.2089 311° West 392 451 40,100  Level Salt Lake Center
Sat 11:07:44 PM 42.7208 -108.3161 310° West 391 450 40,100  Level Salt Lake Center
Sat 11:08:45 PM 42.7986 -108.4425 310° West 393 452 40,100  Level Salt Lake Center
Sat 11:09:46 PM 42.8650 -108.5506 310° West 390 449 40,100  Level Salt Lake Center
Sat 11:10:47 PM 42.9314 -108.6589 310° West 390 449 40,100  Level Salt Lake Center
Sat 11:11:48 PM 43.0061 -108.7794 310° West 386 444 40,100 -49 Level Salt Lake Center
Sat 11:12:49 PM 43.0733 -108.8900 310° West 392 451 40,000  Descending Salt Lake Center
Sat 11:13:50 PM 43.1514 -109.0189 310° West 392 451 40,100 49 Climbing Salt Lake Center
Sat 11:14:51 PM 43.2169 -109.1275 310° West 388 447 40,100  Level Salt Lake Center
Sat 11:15:52 PM 43.2817 -109.2344 310° West 383 441 40,100  Level Salt Lake Center
Sat 11:16:53 PM 43.3572 -109.3603 310° West 383 441 40,100  Level Salt Lake Center
Sat 11:17:53 PM 43.4217 -109.4678 310° West 380 437 40,100  Level Salt Lake Center
Sat 11:18:54 PM 43.4875 -109.5786 309° West 386 444 40,100  Level Salt Lake Center
Sat 11:19:55 PM 43.5644 -109.7075 310° West 387 445 40,100  Level Salt Lake Center
Sat 11:20:56 PM 43.6303 -109.8158 310° West 385 443 40,100  Level Salt Lake Center
Sat 11:21:57 PM 43.6933 -109.9244 309° West 381 438 40,100  Level Salt Lake Center
Sat 11:22:58 PM 43.7681 -110.0511 309° West 381 438 40,100  Level Salt Lake Center
Sat 11:23:59 PM 43.8328 -110.1608 309° West 383 441 40,100  Level Salt Lake Center
Sat 11:24:59 PM 43.8969 -110.2725 309° West 385 443 40,100  Level Salt Lake Center
Sat 11:26:00 PM 43.9711 -110.4017 309° West 384 442 40,100  Level Salt Lake Center
Sat 11:27:01 PM 44.0350 -110.5100 309° West 381 438 40,100  Level Salt Lake Center
Sat 11:28:02 PM 44.0978 -110.6222 308° West 383 441 40,100  Level Salt Lake Center
Sat 11:29:03 PM 44.1717 -110.7497 309° West 381 438 40,100  Level Salt Lake Center
Sat 11:30:04 PM 44.2347 -110.8614 308° West 382 440 40,100  Level Salt Lake Center
Sat 11:31:05 PM 44.2989 -110.9722 309° West 384 442 40,100  Level Salt Lake Center
Sat 11:32:05 PM 44.3725 -111.1031 308° West 383 441 40,100  Level Salt Lake Center
Sat 11:33:06 PM 44.4356 -111.2139 309° West 381 438 40,100  Level Salt Lake Center
Sat 11:34:07 PM 44.4969 -111.3225 308° West 376 433 40,100  Level Salt Lake Center
Sat 11:35:08 PM 44.5647 -111.4453 308° West 365 420 40,100  Level Salt Lake Center
Sat 11:36:08 PM 44.6328 -111.5686 308° West 373 429 40,100  Level Salt Lake Center
Sat 11:37:09 PM 44.6950 -111.6817 308° West 380 437 40,100  Level Salt Lake Center
Sat 11:38:10 PM 44.7542 -111.7881 308° West 366 421 40,100  Level Salt Lake Center
Sat 11:39:11 PM 44.8225 -111.9122 308° West 361 415 40,100  Level Salt Lake Center
Sat 11:40:11 PM 44.8825 -112.0219 308° West 366 421 40,100  Level Salt Lake Center
Sat 11:41:12 PM 44.9428 -112.1347 307° West 374 430 40,100  Level Salt Lake Center
Sat 11:42:13 PM 45.0167 -112.2681 308° West 385 443 40,100  Level Salt Lake Center
Sat 11:43:14 PM 45.0764 -112.3800 307° West 375 432 40,100  Level Salt Lake Center
Sat 11:44:14 PM 45.1386 -112.4914 308° West 376 433 40,100  Level Salt Lake Center
Sat 11:45:15 PM 45.2114 -112.6281 307° West 386 444 40,100  Level Salt Lake Center
Sat 11:46:16 PM 45.2717 -112.7417 307° West 379 436 40,100 -49 Level Salt Lake Center
Sat 11:47:17 PM 45.3297 -112.8514 307° West 367 422 40,000  Descending Salt Lake Center
Sat 11:48:17 PM 45.3875 -112.9633 306° West 360 414 40,100 50 Climbing Salt Lake Center
Sat 11:49:18 PM 45.4514 -113.0831 307° West 377 434 40,100  Level Salt Lake Center
Sat 11:50:19 PM 45.5161 -113.2067 307° West 385 443 40,100  Level Salt Lake Center
Sat 11:51:20 PM 45.5806 -113.3292 307° West 386 444 40,100  Level Salt Lake Center
Sat 11:52:20 PM 45.6453 -113.4533 307° West 388 447 40,100  Level Salt Lake Center
Sat 11:53:21 PM 45.7094 -113.5772 307° West 387 445 40,100 -49 Level Salt Lake Center
Sat 11:54:22 PM 45.7839 -113.7206 307° West 383 441 40,000 -50 Descending Salt Lake Center
Sat 11:55:22 PM 45.8469 -113.8419 307° West 383 441 40,000  Level Salt Lake Center
Sat 11:56:23 PM 45.9122 -113.9681 307° West 391 450 40,000  Level Salt Lake Center
Sat 11:57:24 PM 45.9750 -114.0942 306° West 390 449 40,000  Level Salt Lake Center
Sat 11:58:25 PM 46.0389 -114.2211 306° West 392 451 40,000  Level Salt Lake Center
Sat 11:59:25 PM 46.1036 -114.3472 307° West 392 451 40,000  Level Salt Lake Center
Sun 12:00:26 AM 46.1664 -114.4733 306° West 391 450 40,000  Level Salt Lake Center
Sun 12:01:27 AM 46.2289 -114.5975 306° West 385 443 40,000  Level Salt Lake Center
Sun 12:02:27 AM 46.2908 -114.7211 306° West 382 440 40,000  Level Salt Lake Center
Sun 12:03:28 AM 46.3519 -114.8464 305° West 381 438 40,000  Level Salt Lake Center
Sun 12:04:29 AM 46.4131 -114.9692 306° West 378 435 40,000  Level Salt Lake Center
Sun 12:05:29 AM 46.4739 -115.0928 306° West 377 434 40,000 -298 Level Salt Lake Center
Sun 12:06:30 AM 46.5392 -115.2261 305° West 375 432 39,400 -1,230 Descending Salt Lake Center
Sun 12:07:31 AM 46.5986 -115.3511 305° West 376 433 37,500 -2,182 Descending Salt Lake Center
Sun 12:08:42 AM 46.6681 -115.4958 305° West 366 421 34,600 -2,273 Descending Seattle Center
Sun 12:09:43 AM 46.7233 -115.6128 305° West 355 409 32,500 -1,983 Descending Seattle Center
Sun 12:10:43 AM 46.7772 -115.7203 306° West 333 383 30,600 -1,884 Descending Seattle Center
Sun 12:11:44 AM 46.8269 -115.8244 305° West 317 365 28,700 -1,835 Descending Seattle Center
Sun 12:12:44 AM 46.8758 -115.9261 305° West 308 354 26,900 -1,785 Descending Seattle Center
Sun 12:13:45 AM 46.9250 -116.0314 304° West 313 360 25,100 -1,785 Descending Seattle Center
Sun 12:14:45 AM 46.9725 -116.1311 305° West 302 348 23,300 -1,736 Descending Seattle Center
Sun 12:15:46 AM 47.0178 -116.2278 305° West 291 335 21,600 -1,686 Descending Seattle Center
Sun 12:16:46 AM 47.0642 -116.3267 305° West 293 337 19,900 -1,650 Descending Seattle Center
Sun 12:17:46 AM 47.1078 -116.4203 304° West 285 328 18,300 -1,587 Descending Seattle Center
Sun 12:18:47 AM 47.1528 -116.5164 305° West 284 327 16,700 -1,636 Descending Seattle Center
Sun 12:19:47 AM 47.1978 -116.6114 305° West 282 325 15,000 -1,537 Descending Seattle Center
Sun 12:20:48 AM 47.2411 -116.7006 306° West 269 310 13,600 -1,140 Descending Seattle Center
Sun 12:21:48 AM 47.2947 -116.7864 313° West 286 329 12,700 -1,350 Descending Seattle Center
Sun 12:22:48 AM 47.3472 -116.8728 312° West 284 327 10,900 -1,537 Descending Seattle Center
Sun 12:23:49 AM 47.4064 -116.9667 313° West 274 315 9,600 -1,240 Descending Seattle Center
Sun 12:24:49 AM 47.4544 -117.0464 312° West 261 300 8,400 -992 Descending Seattle Center
Sun 12:25:50 AM 47.5031 -117.1250 312° West 260 299 7,600 -843 Descending Seattle Center
Sun 12:26:50 AM 47.5494 -117.2039 311° West 259 298 6,700 -1,000 Descending Seattle Center
Sun 12:27:50 AM 47.5958 -117.2831 311° West 257 296 5,600 -1,190 Descending Seattle Center
Sun 12:28:51 AM 47.6372 -117.3508 312° West 238 274 4,300 -793 Descending Seattle Center
Sun 12:29:51 AM 47.6769 -117.4194 311° West 214 246 4,000 -450 Descending Seattle Center
Sun 12:30:51 AM 47.6681 -117.4636 253° West 146 168 3,400 -645 Descending Seattle Center
Sun 12:31:52 AM 47.6428 -117.5014 225° Southwest 131 151 2,700 -545 Descending Seattle Center
Sun 12:32:52 AM 47.6189 -117.5369 225° Southwest 126 145 2,300 -149 Descending Seattle Center
Sun 12:33:53 AM 47.6183 -117.5408 258° West 56 64 2,400 98 Climbing Seattle Center

Login

Don't have an account? Register now (free) for customized features, flight alerts, and more!